KLKU

Louisa County/Freeman Field Airport

Louisa, Virginia, USA
METAR KLKU 181615Z AUTO 23005KT 10SM CLR 11/03 A3015 RMK AO2 T01070025
Observed Flight Rules
Dec-18 @ 16:15 UTC (32 minutes ago) Visual Flight Rules
Wind Visibility Clouds
230° at 5 knots 10 miles
  • Clear skies
Temperatures Readings
Current 11°C / 52°F
Dewpoint 3°C / 37°F
Humidity 58%
Altimeter 30.15" Hg
Pressure 1021 hPa
Elevation 150
METAR KLKU 181615Z AUTO 23005KT 10SM CLR 11/03 A3015 RMK AO2 T01070025
Observed Flight Rules
Dec-18 @ 16:15 UTC
(32 minutes ago)
VFR
Wind Visibility
230° at 5 knots 10 miles
Clouds
  • Clear skies
Temperature Dewpoint
11°C / 52°F 3°C / 37°F
Humidity Altimeter Pressure
58% 30.15" Hg 1021 hPa